createdAt,value
2022-09-06T00:00:08.955Z,8.43
2022-09-06T00:05:14.005Z,7.97
2022-09-06T00:10:16.064Z,8.40
2022-09-06T00:15:17.722Z,8.90
2022-09-06T00:20:19.406Z,8.57
2022-09-06T00:25:21.068Z,8.97
2022-09-06T00:30:23.230Z,8.90
2022-09-06T00:35:25.362Z,8.97
2022-09-06T00:40:29.393Z,8.30
2022-09-06T00:45:31.088Z,8.53
2022-09-06T00:50:32.818Z,8.10
2022-09-06T00:55:34.664Z,9.00
2022-09-06T01:00:36.550Z,8.90
2022-09-06T01:05:54.686Z,8.37
2022-09-06T01:11:03.625Z,8.70
2022-09-06T01:16:11.836Z,8.10
2022-09-06T01:21:49.273Z,7.97
2022-09-06T01:27:12.491Z,8.20
2022-09-06T01:32:40.111Z,8.60
2022-09-06T01:37:41.780Z,7.70
2022-09-06T01:42:43.431Z,8.13
2022-09-06T01:47:56.887Z,8.17
2022-09-06T01:53:22.581Z,8.40
2022-09-06T01:58:35.188Z,7.87
2022-09-06T02:03:41.210Z,7.90
2022-09-06T02:08:44.996Z,7.93
2022-09-06T02:13:50.658Z,8.20
2022-09-06T02:19:15.372Z,7.80
2022-09-06T02:24:20.033Z,8.03
2022-09-06T02:29:21.779Z,7.53
2022-09-06T02:34:23.454Z,8.00
2022-09-06T02:39:25.197Z,6.73
2022-09-06T02:44:26.975Z,7.67
2022-09-06T02:49:28.805Z,7.43
2022-09-06T02:54:31.193Z,6.70
2022-09-06T02:59:32.896Z,6.97
2022-09-06T03:04:34.572Z,6.70
2022-09-06T03:09:36.216Z,6.67
2022-09-06T03:14:37.885Z,6.77
2022-09-06T03:19:39.558Z,6.80
2022-09-06T03:24:41.227Z,6.50
2022-09-06T03:29:42.899Z,6.60
2022-09-06T03:34:44.575Z,6.80
2022-09-06T03:39:46.278Z,6.47
2022-09-06T03:44:48.021Z,6.87
2022-09-06T03:49:49.708Z,6.67
2022-09-06T03:54:51.415Z,6.20
2022-09-06T03:59:53.071Z,6.20
2022-09-06T04:04:55.578Z,6.23
2022-09-06T04:09:57.269Z,6.00
2022-09-06T04:14:58.937Z,6.87
2022-09-06T04:20:00.623Z,6.00
2022-09-06T04:25:03.065Z,5.73
2022-09-06T04:30:05.158Z,5.67
2022-09-06T04:35:07.203Z,5.73
2022-09-06T04:40:09.598Z,5.83
2022-09-06T04:45:11.345Z,5.63
2022-09-06T04:50:13.088Z,5.20
2022-09-06T04:55:14.837Z,5.60
2022-09-06T05:00:16.588Z,5.53
2022-09-06T05:05:18.244Z,5.37
2022-09-06T05:10:19.971Z,5.77
2022-09-06T05:15:22.094Z,5.60
2022-09-06T05:20:23.773Z,5.50
2022-09-06T05:25:25.516Z,5.47
2022-09-06T05:30:27.229Z,6.60
2022-09-06T05:35:28.912Z,5.20
2022-09-06T05:40:30.607Z,4.70
2022-09-06T05:45:32.308Z,5.40
2022-09-06T05:50:34.031Z,5.20
2022-09-06T05:55:37.498Z,4.63
2022-09-06T06:00:40.757Z,5.03
2022-09-06T06:05:47.074Z,4.90
2022-09-06T06:10:48.787Z,5.00
2022-09-06T06:15:50.454Z,4.73
2022-09-06T06:20:52.129Z,4.40
2022-09-06T06:25:54.238Z,4.60
2022-09-06T06:30:55.934Z,4.90
2022-09-06T06:36:05.225Z,4.23
2022-09-06T06:41:08.432Z,5.43
2022-09-06T06:46:15.125Z,4.47
2022-09-06T06:51:18.675Z,4.20
2022-09-06T06:56:27.071Z,4.60
2022-09-06T07:01:30.069Z,3.93
2022-09-06T07:11:53.949Z,4.20
2022-09-06T07:16:58.571Z,4.77
2022-09-06T07:22:04.396Z,4.03
2022-09-06T07:32:31.019Z,4.03
2022-09-06T07:37:32.650Z,4.30
2022-09-06T07:42:36.640Z,4.00
2022-09-06T07:58:13.557Z,3.87
2022-09-06T08:03:15.227Z,4.00
2022-09-06T08:13:38.628Z,7.67
2022-09-06T08:18:40.312Z,4.50
2022-09-06T08:23:45.722Z,4.00
2022-09-06T08:28:47.421Z,4.33
2022-09-06T08:33:49.069Z,4.20
2022-09-06T08:38:50.726Z,4.10
2022-09-06T08:49:52.906Z,3.40
2022-09-06T08:55:22.054Z,3.33
2022-09-06T09:00:23.797Z,3.53
2022-09-06T09:05:30.485Z,3.53
2022-09-06T09:10:54.781Z,5.03
2022-09-06T09:15:56.480Z,3.93
2022-09-06T09:20:58.617Z,3.57
2022-09-06T09:26:18.889Z,4.20
2022-09-06T09:31:33.164Z,3.97
2022-09-06T09:36:34.976Z,4.33
2022-09-06T09:41:38.390Z,3.90
2022-09-06T09:46:40.173Z,3.67
2022-09-06T09:51:43.170Z,3.83
2022-09-06T09:56:52.425Z,4.03
2022-09-06T10:01:56.181Z,4.10
2022-09-06T10:07:17.775Z,3.70
2022-09-06T10:12:29.255Z,3.60
2022-09-06T10:17:49.278Z,3.70
2022-09-06T10:23:06.519Z,4.03
2022-09-06T10:28:28.202Z,3.87
2022-09-06T10:33:52.463Z,3.80
2022-09-06T10:38:59.301Z,3.53
2022-09-06T10:44:32.243Z,4.17
2022-09-06T10:49:33.921Z,4.33
2022-09-06T10:54:36.352Z,4.20
2022-09-06T10:59:51.523Z,3.93
2022-09-06T11:10:27.157Z,3.87
2022-09-06T11:15:31.212Z,4.00
2022-09-06T11:20:39.190Z,4.00
2022-09-06T11:26:14.821Z,5.67
2022-09-06T11:37:07.066Z,3.90
2022-09-06T11:42:09.880Z,5.10
2022-09-06T11:47:11.552Z,4.70
2022-09-06T11:53:09.084Z,4.40
2022-09-06T11:58:21.223Z,4.67
2022-09-06T12:09:11.724Z,4.33
2022-09-06T12:14:31.760Z,4.17
2022-09-06T12:19:43.889Z,4.70
2022-09-06T12:24:45.932Z,4.60
2022-09-06T12:29:58.416Z,5.30
2022-09-06T12:40:22.980Z,4.23
2022-09-06T12:45:27.436Z,4.80
2022-09-06T12:50:31.464Z,4.77
2022-09-06T12:55:37.041Z,4.30
2022-09-06T13:00:44.263Z,4.23
2022-09-06T13:05:45.927Z,4.30
2022-09-06T13:10:47.641Z,4.47
2022-09-06T13:15:49.413Z,4.20
2022-09-06T13:21:14.105Z,3.83
2022-09-06T13:26:15.821Z,4.38
2022-09-06T13:31:17.462Z,4.30
2022-09-06T13:36:22.166Z,4.50
2022-09-06T13:41:26.471Z,4.60
2022-09-06T13:46:28.181Z,3.90
2022-09-06T13:51:29.851Z,6.30
2022-09-06T13:56:31.689Z,5.13
2022-09-06T14:01:33.628Z,4.60
2022-09-06T14:06:36.900Z,4.10
2022-09-06T14:11:39.174Z,4.18
2022-09-06T14:16:40.866Z,4.88
2022-09-06T14:21:43.268Z,4.65
2022-09-06T14:26:44.934Z,4.90
2022-09-06T14:31:48.325Z,4.55
2022-09-06T14:36:50.092Z,4.88
2022-09-06T14:41:52.094Z,5.07
2022-09-06T14:46:54.523Z,4.65
2022-09-06T14:51:56.165Z,4.35
2022-09-06T14:56:57.839Z,4.90
2022-09-06T15:01:59.537Z,4.60
2022-09-06T15:07:01.266Z,4.70
2022-09-06T15:12:03.166Z,4.85
2022-09-06T15:17:08.738Z,4.68
2022-09-06T15:22:10.392Z,5.18
2022-09-06T15:27:12.143Z,4.50
2022-09-06T15:32:13.823Z,4.37
2022-09-06T15:37:15.505Z,4.43
2022-09-06T15:42:17.164Z,5.00
2022-09-06T15:47:18.832Z,4.70
2022-09-06T15:52:20.570Z,5.10
2022-09-06T15:57:22.259Z,5.43
2022-09-06T16:02:23.975Z,4.80
2022-09-06T16:07:25.826Z,4.80
2022-09-06T16:12:27.524Z,4.07
2022-09-06T16:17:31.138Z,5.20
2022-09-06T16:22:32.966Z,4.73
2022-09-06T16:27:34.669Z,5.37
2022-09-06T16:32:36.346Z,5.47
2022-09-06T16:37:38.030Z,5.47
2022-09-06T16:42:39.702Z,5.50
2022-09-06T16:47:41.576Z,4.90
2022-09-06T16:52:43.249Z,5.07
2022-09-06T16:57:44.924Z,5.10
2022-09-06T17:02:47.736Z,5.97
2022-09-06T17:07:49.663Z,5.50
2022-09-06T17:12:51.329Z,5.50
2022-09-06T17:17:52.992Z,5.27
2022-09-06T17:22:54.714Z,5.30
2022-09-06T17:27:57.987Z,5.20
2022-09-06T17:32:59.679Z,8.80
2022-09-06T17:38:01.416Z,8.37
2022-09-06T17:43:05.011Z,6.97
2022-09-06T17:48:06.757Z,5.90
2022-09-06T17:53:08.444Z,6.07
2022-09-06T17:58:10.120Z,6.03
2022-09-06T18:03:11.785Z,5.90
2022-09-06T18:08:13.456Z,6.43
2022-09-06T18:13:15.130Z,5.97
2022-09-06T18:18:18.037Z,6.10
2022-09-06T18:23:20.067Z,6.10
2022-09-06T18:28:21.737Z,6.10
2022-09-06T18:33:23.778Z,5.80
2022-09-06T18:38:25.571Z,6.37
2022-09-06T18:43:31.553Z,6.20
2022-09-06T18:48:33.708Z,5.87
2022-09-06T18:53:36.075Z,6.47
2022-09-06T18:58:37.818Z,6.33
2022-09-06T19:03:39.766Z,6.07
2022-09-06T19:08:41.767Z,6.47
2022-09-06T19:13:44.341Z,7.30
2022-09-06T19:18:46.117Z,6.93
2022-09-06T19:23:53.906Z,6.40
2022-09-06T19:28:57.820Z,6.57
2022-09-06T19:33:59.527Z,6.80
2022-09-06T19:39:05.126Z,6.90
2022-09-06T19:44:08.965Z,6.93
2022-09-06T19:49:10.911Z,6.93
2022-09-06T19:54:12.682Z,6.80
2022-09-06T19:59:14.780Z,6.90
2022-09-06T20:04:16.497Z,6.67
2022-09-06T20:09:18.325Z,6.30
2022-09-06T20:14:20.016Z,6.20
2022-09-06T20:19:21.718Z,7.20
2022-09-06T20:24:23.443Z,6.97
2022-09-06T20:29:25.116Z,6.90
2022-09-06T20:34:26.800Z,6.90
2022-09-06T20:39:29.008Z,6.57
2022-09-06T20:44:30.965Z,7.00
2022-09-06T20:49:32.636Z,7.70
2022-09-06T20:54:34.304Z,6.73
2022-09-06T20:59:35.976Z,8.70
2022-09-06T21:04:37.693Z,8.73
2022-09-06T21:09:39.367Z,7.60
2022-09-06T21:14:41.023Z,6.83
2022-09-06T21:19:42.839Z,8.30
2022-09-06T21:24:44.898Z,7.70
2022-09-06T21:29:47.012Z,7.87
2022-09-06T21:34:48.679Z,8.70
2022-09-06T21:39:50.366Z,7.43
2022-09-06T21:44:52.040Z,8.60
2022-09-06T21:49:53.784Z,8.27
2022-09-06T21:54:55.441Z,8.20
2022-09-06T21:59:57.107Z,8.20
2022-09-06T22:04:58.783Z,7.90
2022-09-06T22:10:00.439Z,8.27
2022-09-06T22:15:02.098Z,8.30
2022-09-06T22:20:08.402Z,8.07
2022-09-06T22:25:10.081Z,10.30
2022-09-06T22:30:12.122Z,9.33
2022-09-06T22:35:13.967Z,8.60
2022-09-06T22:40:15.663Z,8.30
2022-09-06T22:45:17.341Z,8.60
2022-09-06T22:50:19.001Z,8.67
2022-09-06T22:55:20.678Z,8.80
2022-09-06T23:00:22.384Z,7.90
2022-09-06T23:05:24.064Z,9.00
2022-09-06T23:10:25.753Z,8.97
2022-09-06T23:15:27.815Z,9.07
2022-09-06T23:20:29.495Z,8.80
2022-09-06T23:25:31.188Z,8.50
2022-09-06T23:30:33.022Z,9.23
2022-09-06T23:35:34.683Z,8.63
2022-09-06T23:40:37.354Z,8.80
2022-09-06T23:45:39.028Z,9.87
2022-09-06T23:50:40.735Z,8.83
2022-09-06T23:55:42.471Z,9.23
